createdAt,value
2019-03-27T00:00:17.283Z,6.063843
2019-03-27T00:01:17.425Z,6.013489
2019-03-27T00:02:17.542Z,5.983276
2019-03-27T00:03:17.651Z,5.953064
2019-03-27T00:04:17.748Z,5.953064
2019-03-27T00:05:17.841Z,5.942993
2019-03-27T00:06:17.968Z,5.942993
2019-03-27T00:07:18.082Z,5.942993
2019-03-27T00:08:18.196Z,5.953064
2019-03-27T00:09:18.353Z,5.942993
2019-03-27T00:10:18.457Z,5.922852
2019-03-27T00:11:18.452Z,5.90271
2019-03-27T00:12:18.567Z,5.90271
2019-03-27T00:13:18.673Z,5.872498
2019-03-27T00:14:18.799Z,5.842285
2019-03-27T00:15:18.922Z,5.832214
2019-03-27T00:16:19.066Z,5.812073
2019-03-27T00:17:19.158Z,5.802002
2019-03-27T00:18:19.253Z,5.812073
2019-03-27T00:19:19.362Z,5.802002
2019-03-27T00:20:19.500Z,5.802002
2019-03-27T00:21:19.540Z,5.802002
2019-03-27T00:22:19.673Z,5.77179
2019-03-27T00:23:19.802Z,5.741577
2019-03-27T00:24:19.899Z,5.721436
2019-03-27T00:25:20.024Z,5.691223
2019-03-27T00:26:20.143Z,5.65094
2019-03-27T00:27:20.322Z,5.620728
2019-03-27T00:28:20.262Z,5.620728
2019-03-27T00:29:20.441Z,5.620728
2019-03-27T00:30:20.544Z,5.610657
2019-03-27T00:31:20.672Z,5.560303
2019-03-27T00:32:20.775Z,5.550232
2019-03-27T00:33:20.899Z,5.550232
2019-03-27T00:34:21.017Z,5.560303
2019-03-27T00:35:21.115Z,5.560303
2019-03-27T00:36:21.267Z,5.550232
2019-03-27T00:37:21.390Z,5.540161
2019-03-27T00:38:21.501Z,5.52002
2019-03-27T00:39:21.633Z,5.509949
2019-03-27T00:40:21.789Z,5.489807
2019-03-27T00:41:21.755Z,5.469666
2019-03-27T00:42:21.859Z,5.439453
2019-03-27T00:43:21.972Z,5.429382
2019-03-27T00:44:22.078Z,5.409241
2019-03-27T00:45:26.670Z,5.368958
2019-03-27T00:46:22.306Z,5.358887
2019-03-27T00:47:22.448Z,5.328674
2019-03-27T00:48:22.452Z,5.288391
2019-03-27T00:49:22.423Z,5.248108
2019-03-27T00:50:22.566Z,5.227966
2019-03-27T00:51:22.690Z,5.227966
2019-03-27T00:52:22.796Z,5.248108
2019-03-27T00:53:22.926Z,5.217896
2019-03-27T00:54:23.040Z,5.217896
2019-03-27T00:55:23.208Z,5.248108
2019-03-27T00:56:23.297Z,5.248108
2019-03-27T00:57:23.423Z,5.227966
2019-03-27T00:58:23.519Z,5.197754
2019-03-27T00:59:23.648Z,5.197754
2019-03-27T01:00:23.787Z,5.157471
2019-03-27T01:01:23.767Z,5.1474
2019-03-27T01:02:23.879Z,5.117188
2019-03-27T01:03:23.981Z,5.076904
2019-03-27T01:04:24.113Z,5.066833
2019-03-27T01:05:24.240Z,5.006409
2019-03-27T01:06:24.376Z,4.996338
2019-03-27T01:07:24.485Z,4.966125
2019-03-27T01:08:24.614Z,4.945984
2019-03-27T01:09:24.699Z,4.966125
2019-03-27T01:10:24.851Z,4.966125
2019-03-27T01:11:24.858Z,4.935913
2019-03-27T01:12:24.952Z,4.915771
2019-03-27T01:13:25.068Z,4.915771
2019-03-27T01:14:25.183Z,4.915771
2019-03-27T01:15:38.774Z,4.966125
2019-03-27T01:16:26.397Z,4.935913
2019-03-27T01:17:25.500Z,4.935913
2019-03-27T01:18:25.631Z,4.945984
2019-03-27T01:19:25.765Z,4.915771
2019-03-27T01:20:25.882Z,4.855347
2019-03-27T01:21:25.878Z,4.794922
2019-03-27T01:22:25.993Z,4.744568
2019-03-27T01:23:26.115Z,4.674072
2019-03-27T01:24:26.264Z,4.64386
2019-03-27T01:25:26.374Z,4.633789
2019-03-27T01:26:26.502Z,4.613647
2019-03-27T01:27:26.630Z,4.613647
2019-03-27T01:28:26.731Z,4.613647
2019-03-27T01:29:26.890Z,4.633789
2019-03-27T01:30:26.989Z,4.613647
2019-03-27T01:31:27.147Z,4.603577
2019-03-27T01:32:27.263Z,4.583435
2019-03-27T01:33:27.357Z,4.573364
2019-03-27T01:34:27.463Z,4.533081
2019-03-27T01:35:28.566Z,4.52301
2019-03-27T01:36:27.718Z,4.573364
2019-03-27T01:37:27.819Z,4.573364
2019-03-27T01:38:28.949Z,4.563293
2019-03-27T01:39:28.040Z,4.502869
2019-03-27T01:40:28.159Z,4.492798
2019-03-27T01:41:28.300Z,4.452515
2019-03-27T01:42:28.410Z,4.452515
2019-03-27T01:43:28.526Z,4.432373
2019-03-27T01:44:28.628Z,4.432373
2019-03-27T01:45:28.741Z,4.422302
2019-03-27T01:46:29.836Z,4.422302
2019-03-27T01:47:28.947Z,4.39209
2019-03-27T01:48:29.068Z,4.402161
2019-03-27T01:49:29.214Z,4.402161
2019-03-27T01:50:29.303Z,4.382019
2019-03-27T01:51:29.440Z,4.341736
2019-03-27T01:52:29.543Z,4.361877
2019-03-27T01:53:29.662Z,4.361877
2019-03-27T01:54:29.796Z,4.341736
2019-03-27T01:55:29.910Z,4.321594
2019-03-27T01:56:29.927Z,4.301453
2019-03-27T01:57:30.016Z,4.27124
2019-03-27T01:58:30.150Z,4.241028
2019-03-27T01:59:30.247Z,4.200745
2019-03-27T02:00:30.347Z,4.180603
2019-03-27T02:01:30.471Z,4.160461
2019-03-27T02:02:31.560Z,4.120178
2019-03-27T02:03:30.679Z,4.100037
2019-03-27T02:04:30.778Z,4.130249
2019-03-27T02:05:30.901Z,4.120178
2019-03-27T02:06:31.091Z,4.14032
2019-03-27T02:07:31.224Z,4.130249
2019-03-27T02:08:31.347Z,4.100037
2019-03-27T02:09:31.449Z,4.069824
2019-03-27T02:10:31.550Z,4.039612
2019-03-27T02:11:31.553Z,4.029541
2019-03-27T02:12:31.681Z,3.999329
2019-03-27T02:13:31.785Z,3.999329
2019-03-27T02:14:31.914Z,3.999329
2019-03-27T02:15:32.028Z,3.989258
2019-03-27T02:16:32.171Z,3.959045
2019-03-27T02:17:32.310Z,3.948975
2019-03-27T02:18:32.455Z,3.938904
2019-03-27T02:19:32.559Z,3.938904
2019-03-27T02:20:32.678Z,3.999329
2019-03-27T02:21:32.812Z,4.069824
2019-03-27T02:22:32.922Z,4.089966
2019-03-27T02:23:33.037Z,4.069824
2019-03-27T02:24:33.152Z,4.059753
2019-03-27T02:25:33.261Z,4.029541
2019-03-27T02:26:33.400Z,4.039612
2019-03-27T02:27:33.503Z,4.01947
2019-03-27T02:28:33.629Z,4.01947
2019-03-27T02:29:33.765Z,3.959045
2019-03-27T02:30:33.898Z,3.989258
2019-03-27T02:31:33.877Z,3.989258
2019-03-27T02:32:34.005Z,3.959045
2019-03-27T02:33:34.122Z,3.938904
2019-03-27T02:34:34.226Z,3.918762
2019-03-27T02:35:34.331Z,3.88855
2019-03-27T02:36:34.458Z,3.848267
2019-03-27T02:37:34.578Z,3.818054
2019-03-27T02:38:34.682Z,3.807983
2019-03-27T02:39:34.784Z,3.757629
2019-03-27T02:40:34.900Z,3.737488
2019-03-27T02:41:35.049Z,3.727417
2019-03-27T02:42:35.175Z,3.727417
2019-03-27T02:43:35.270Z,3.697205
2019-03-27T02:44:35.375Z,3.677063
2019-03-27T02:45:35.498Z,3.656921
2019-03-27T02:46:35.649Z,3.63678
2019-03-27T02:47:35.750Z,3.63678
2019-03-27T02:48:35.842Z,3.586426
2019-03-27T02:49:35.954Z,3.556213
2019-03-27T02:50:36.049Z,3.526001
2019-03-27T02:51:36.069Z,3.51593
2019-03-27T02:52:36.183Z,3.485718
2019-03-27T02:53:36.321Z,3.455505
2019-03-27T02:54:36.439Z,3.425293
2019-03-27T02:55:36.550Z,3.405151
2019-03-27T02:56:36.713Z,3.374939
2019-03-27T02:57:36.845Z,3.364868
2019-03-27T02:58:36.961Z,3.344727
2019-03-27T02:59:37.061Z,3.334656
2019-03-27T03:00:37.170Z,3.314514
2019-03-27T03:01:37.296Z,3.304443
2019-03-27T03:02:37.387Z,3.274231
2019-03-27T03:03:37.493Z,3.244019
2019-03-27T03:04:37.595Z,3.244019
2019-03-27T03:05:37.712Z,3.213806
2019-03-27T03:06:37.855Z,3.183594
2019-03-27T03:07:37.962Z,3.163452
2019-03-27T03:08:38.059Z,3.153381
2019-03-27T03:09:38.174Z,3.113098
2019-03-27T03:10:38.300Z,3.082886
2019-03-27T03:11:38.427Z,3.052673
2019-03-27T03:12:38.534Z,3.01239
2019-03-27T03:13:38.630Z,3.002319
2019-03-27T03:14:38.728Z,3.002319
2019-03-27T03:15:38.835Z,2.972107
2019-03-27T03:16:42.470Z,2.972107
2019-03-27T03:17:39.068Z,2.941895
2019-03-27T03:18:39.176Z,2.931824
2019-03-27T03:19:39.277Z,2.911682
2019-03-27T03:20:39.381Z,2.88147
2019-03-27T03:21:39.378Z,2.871399
2019-03-27T03:22:39.471Z,2.871399
2019-03-27T03:23:39.585Z,2.851257
2019-03-27T03:24:39.692Z,2.851257
2019-03-27T03:25:39.811Z,2.831116
2019-03-27T03:26:39.928Z,2.821045
2019-03-27T03:27:40.020Z,2.851257
2019-03-27T03:28:40.127Z,2.851257
2019-03-27T03:29:40.210Z,2.871399
2019-03-27T03:30:40.316Z,2.851257
2019-03-27T03:31:40.434Z,2.88147
2019-03-27T03:32:40.575Z,2.88147
2019-03-27T03:33:40.657Z,2.88147
2019-03-27T03:34:40.739Z,2.901611
2019-03-27T03:35:40.833Z,2.931824
2019-03-27T03:36:40.959Z,2.941895
2019-03-27T03:37:42.051Z,2.972107
2019-03-27T03:38:41.138Z,2.941895
2019-03-27T03:39:41.231Z,2.951965
2019-03-27T03:40:41.353Z,2.951965
2019-03-27T03:41:41.486Z,2.982178
2019-03-27T03:42:41.591Z,2.982178
2019-03-27T03:43:41.695Z,3.002319
2019-03-27T03:44:41.798Z,3.002319
2019-03-27T03:45:41.898Z,3.002319
2019-03-27T03:46:58.331Z,3.01239
2019-03-27T03:47:43.078Z,3.052673
2019-03-27T03:48:42.189Z,3.032532
2019-03-27T03:49:42.292Z,3.002319
2019-03-27T03:50:42.405Z,3.002319
2019-03-27T03:51:42.556Z,3.002319
2019-03-27T03:52:45.722Z,2.972107
2019-03-27T03:53:42.751Z,3.002319
2019-03-27T03:54:42.851Z,2.982178
2019-03-27T03:55:42.951Z,2.982178
2019-03-27T03:56:43.083Z,2.941895
2019-03-27T03:57:43.192Z,2.931824
2019-03-27T03:58:43.291Z,2.901611
2019-03-27T03:59:43.406Z,2.871399
2019-03-27T04:00:43.516Z,2.831116
2019-03-27T04:01:43.651Z,2.821045
2019-03-27T04:02:43.760Z,2.790833
2019-03-27T04:03:43.882Z,2.770691
2019-03-27T04:04:43.987Z,2.790833
2019-03-27T04:05:44.097Z,2.871399
2019-03-27T04:06:44.227Z,2.911682
2019-03-27T04:07:44.349Z,3.01239
2019-03-27T04:08:44.439Z,3.032532
2019-03-27T04:09:44.446Z,3.052673
2019-03-27T04:10:44.657Z,3.092957
2019-03-27T04:11:44.700Z,3.123169
2019-03-27T04:12:44.810Z,3.183594
2019-03-27T04:13:45.001Z,3.213806
2019-03-27T04:14:45.070Z,3.223877
2019-03-27T04:15:45.201Z,3.223877
2019-03-27T04:16:45.356Z,3.223877
2019-03-27T04:17:45.480Z,3.26416
2019-03-27T04:18:45.601Z,3.294373
2019-03-27T04:19:45.695Z,3.344727
2019-03-27T04:20:45.835Z,3.374939
2019-03-27T04:21:45.989Z,3.374939
2019-03-27T04:22:46.125Z,3.395081
2019-03-27T04:23:46.230Z,3.425293
2019-03-27T04:24:46.336Z,3.445435
2019-03-27T04:26:07.613Z,3.475647
2019-03-27T04:26:47.567Z,3.495789
2019-03-27T04:27:46.675Z,3.495789
2019-03-27T04:28:46.817Z,3.51593
2019-03-27T04:29:46.928Z,3.546143
2019-03-27T04:30:47.063Z,3.586426
2019-03-27T04:31:47.187Z,3.606567
2019-03-27T04:32:47.322Z,3.656921
2019-03-27T04:33:47.434Z,3.666992
2019-03-27T04:34:48.546Z,3.666992
2019-03-27T04:35:47.636Z,3.707275
2019-03-27T04:36:47.808Z,3.707275
2019-03-27T04:37:47.912Z,3.727417
2019-03-27T04:38:48.039Z,3.7677
2019-03-27T04:39:48.148Z,3.777771
2019-03-27T04:40:48.251Z,3.818054
2019-03-27T04:41:48.304Z,3.838196
2019-03-27T04:42:48.437Z,3.858337
2019-03-27T04:43:48.535Z,3.878479
2019-03-27T04:44:48.654Z,3.908691
2019-03-27T04:45:48.792Z,3.918762
2019-03-27T04:46:48.919Z,3.938904
2019-03-27T04:47:49.021Z,3.948975
2019-03-27T04:48:49.136Z,3.948975
2019-03-27T04:49:49.241Z,3.959045
2019-03-27T04:50:49.364Z,3.989258
2019-03-27T04:51:49.503Z,3.989258
2019-03-27T04:52:49.607Z,3.959045
2019-03-27T04:53:49.733Z,3.989258
2019-03-27T04:54:49.835Z,3.959045
2019-03-27T04:55:49.954Z,3.959045
2019-03-27T04:56:50.082Z,3.948975
2019-03-27T04:57:50.180Z,3.959045
2019-03-27T04:58:50.301Z,3.948975
2019-03-27T04:59:50.432Z,3.948975
2019-03-27T05:00:50.565Z,3.948975
2019-03-27T05:01:50.726Z,3.948975
2019-03-27T05:02:51.800Z,3.938904
2019-03-27T05:03:50.909Z,3.918762
2019-03-27T05:04:51.011Z,3.918762
2019-03-27T05:05:51.120Z,3.918762
2019-03-27T05:06:51.305Z,3.918762
2019-03-27T05:07:51.279Z,3.908691
2019-03-27T05:08:51.464Z,3.908691
2019-03-27T05:09:51.497Z,3.908691
2019-03-27T05:10:51.616Z,3.918762
2019-03-27T05:11:51.755Z,3.948975
2019-03-27T05:12:51.881Z,3.948975
2019-03-27T05:13:52.001Z,3.959045
2019-03-27T05:14:52.123Z,3.989258
2019-03-27T05:15:52.277Z,3.989258
2019-03-27T05:16:53.417Z,4.01947
2019-03-27T05:17:52.520Z,4.029541
2019-03-27T05:18:52.621Z,4.029541
2019-03-27T05:19:52.726Z,4.029541
2019-03-27T05:20:52.777Z,4.039612
2019-03-27T05:21:52.798Z,4.039612
2019-03-27T05:22:52.782Z,4.029541
2019-03-27T05:23:52.826Z,4.059753
2019-03-27T05:24:52.977Z,4.059753
2019-03-27T05:25:53.116Z,4.059753
2019-03-27T05:26:53.289Z,4.059753
2019-03-27T05:27:53.307Z,4.069824
2019-03-27T05:28:53.326Z,4.089966
2019-03-27T05:29:53.347Z,4.089966
2019-03-27T05:30:53.496Z,4.100037
2019-03-27T05:31:53.602Z,4.120178
2019-03-27T05:32:53.670Z,4.130249
2019-03-27T05:33:53.743Z,4.130249
2019-03-27T05:34:53.783Z,4.160461
2019-03-27T05:35:53.843Z,4.160461
2019-03-27T05:36:53.915Z,4.200745
2019-03-27T05:37:53.975Z,4.180603
2019-03-27T05:38:54.024Z,4.200745
2019-03-27T05:39:54.074Z,4.210815
2019-03-27T05:40:54.131Z,4.241028
2019-03-27T05:41:54.222Z,4.251099
2019-03-27T05:43:00.327Z,4.281311
2019-03-27T05:43:54.307Z,4.311523
2019-03-27T05:44:54.356Z,4.361877
2019-03-27T05:45:54.397Z,4.402161
2019-03-27T05:46:54.538Z,4.422302
2019-03-27T05:47:59.669Z,4.452515
2019-03-27T05:48:54.629Z,4.462585
2019-03-27T05:49:54.702Z,4.482727
2019-03-27T05:50:54.747Z,4.492798
2019-03-27T05:51:54.821Z,4.533081
2019-03-27T05:52:54.895Z,4.573364
2019-03-27T05:53:54.955Z,4.583435
2019-03-27T05:54:55.014Z,4.613647
2019-03-27T05:55:55.074Z,4.64386
2019-03-27T05:56:55.155Z,4.674072
2019-03-27T05:57:55.226Z,4.704285
2019-03-27T05:58:55.272Z,4.754639
2019-03-27T05:59:55.344Z,4.784851
2019-03-27T06:00:55.422Z,4.794922
2019-03-27T06:01:55.496Z,4.825134
2019-03-27T06:02:55.573Z,4.855347
2019-03-27T06:03:55.620Z,4.855347
2019-03-27T06:04:55.681Z,4.885559
2019-03-27T06:05:55.731Z,4.915771
2019-03-27T06:06:55.811Z,4.935913
2019-03-27T06:07:55.897Z,4.976196
2019-03-27T06:08:56.974Z,4.976196
2019-03-27T06:09:56.007Z,5.036621
2019-03-27T06:10:56.048Z,5.046692
2019-03-27T06:11:56.118Z,5.046692
2019-03-27T06:12:56.159Z,5.076904
2019-03-27T06:13:56.226Z,5.076904
2019-03-27T06:14:56.269Z,5.066833
2019-03-27T06:15:56.310Z,5.066833
2019-03-27T06:16:56.385Z,5.076904
2019-03-27T06:17:56.442Z,5.097046
2019-03-27T06:18:57.488Z,5.127258
2019-03-27T06:19:56.520Z,5.097046
2019-03-27T06:20:56.629Z,5.097046
2019-03-27T06:21:56.691Z,5.117188
2019-03-27T06:22:56.799Z,5.1474
2019-03-27T06:23:56.930Z,5.177612
2019-03-27T06:24:56.889Z,5.217896
2019-03-27T06:25:56.927Z,5.248108
2019-03-27T06:26:57.002Z,5.27832
2019-03-27T06:27:57.037Z,5.338745
2019-03-27T06:28:57.082Z,5.368958
2019-03-27T06:29:57.163Z,5.409241
2019-03-27T06:30:57.226Z,5.409241
2019-03-27T06:31:57.295Z,5.439453
2019-03-27T06:32:57.358Z,5.459595
2019-03-27T06:33:57.399Z,5.469666
2019-03-27T06:34:58.447Z,5.509949
2019-03-27T06:35:57.502Z,5.509949
2019-03-27T06:36:57.564Z,5.52002
2019-03-27T06:37:57.608Z,5.489807
2019-03-27T06:38:57.693Z,5.469666
2019-03-27T06:39:57.734Z,5.489807
2019-03-27T06:40:57.775Z,5.509949
2019-03-27T06:41:57.884Z,5.489807
2019-03-27T06:42:57.926Z,5.509949
2019-03-27T06:43:58.013Z,5.550232
2019-03-27T06:44:58.084Z,5.560303
2019-03-27T06:45:58.541Z,5.610657
2019-03-27T06:46:58.201Z,5.640869
2019-03-27T06:47:58.235Z,5.65094
2019-03-27T06:48:58.323Z,5.701294
2019-03-27T06:49:58.380Z,5.741577
2019-03-27T06:50:58.428Z,5.791931
2019-03-27T06:51:58.508Z,5.832214
2019-03-27T06:52:58.555Z,5.882568
2019-03-27T06:53:58.596Z,5.912781
2019-03-27T06:54:58.631Z,5.942993
2019-03-27T06:55:58.675Z,5.983276
2019-03-27T06:57:01.090Z,5.993347
2019-03-27T06:57:58.794Z,6.02356
2019-03-27T06:58:58.834Z,6.063843
2019-03-27T06:59:58.879Z,6.094055
2019-03-27T07:00:58.920Z,6.134338
2019-03-27T07:01:59.008Z,6.174622
2019-03-27T07:02:59.053Z,6.204834
2019-03-27T07:04:09.771Z,6.255188
2019-03-27T07:04:59.169Z,6.305542
2019-03-27T07:05:59.262Z,6.345825
2019-03-27T07:06:59.343Z,6.376038
2019-03-27T07:07:59.415Z,6.40625
2019-03-27T07:08:59.461Z,6.456604
2019-03-27T07:09:59.500Z,6.496887
2019-03-27T07:10:59.551Z,6.53717
2019-03-27T07:11:59.618Z,6.587524
2019-03-27T07:13:00.642Z,6.647949
2019-03-27T07:13:59.679Z,6.698303
2019-03-27T07:14:59.718Z,6.748657
2019-03-27T07:15:59.760Z,6.799011
2019-03-27T07:16:59.791Z,6.77887
2019-03-27T07:18:00.827Z,6.77887
2019-03-27T07:18:59.895Z,6.819153
2019-03-27T07:19:59.951Z,6.849365
2019-03-27T07:20:59.978Z,6.899719
2019-03-27T07:22:00.048Z,6.929932
2019-03-27T07:23:00.094Z,6.970215
2019-03-27T07:24:00.157Z,6.970215
2019-03-27T07:25:00.443Z,7.03064
2019-03-27T07:26:00.259Z,7.070923
2019-03-27T07:27:00.338Z,7.070923
2019-03-27T07:28:00.386Z,7.070923
2019-03-27T07:29:00.431Z,7.080994
2019-03-27T07:30:00.480Z,7.080994
2019-03-27T07:31:00.522Z,7.111206
2019-03-27T07:32:00.591Z,7.151489
2019-03-27T07:33:00.724Z,7.141418
2019-03-27T07:34:01.759Z,7.141418
2019-03-27T07:35:00.946Z,7.151489
2019-03-27T07:36:00.826Z,7.191772
2019-03-27T07:37:00.891Z,7.131348
2019-03-27T07:38:01.007Z,7.111206
2019-03-27T07:39:10.367Z,7.111206
2019-03-27T07:40:01.009Z,7.101135
2019-03-27T07:41:01.070Z,7.080994
2019-03-27T07:42:01.115Z,7.141418
2019-03-27T07:43:01.185Z,7.181702
2019-03-27T07:44:01.247Z,7.181702
2019-03-27T07:45:01.295Z,7.181702
2019-03-27T07:46:01.359Z,7.191772
2019-03-27T07:47:01.424Z,7.181702
2019-03-27T07:48:01.465Z,7.111206
2019-03-27T07:49:01.507Z,7.151489
2019-03-27T07:50:01.548Z,7.211914
2019-03-27T07:51:01.599Z,7.252197
2019-03-27T07:52:01.690Z,7.28241
2019-03-27T07:53:01.736Z,7.362976
2019-03-27T07:54:01.775Z,7.433472
2019-03-27T07:55:01.817Z,7.53418
2019-03-27T07:56:02.829Z,7.584534
2019-03-27T07:57:01.896Z,7.594604
2019-03-27T07:58:01.939Z,7.503967
2019-03-27T07:59:01.988Z,7.564392
2019-03-27T08:00:02.052Z,7.6651
2019-03-27T08:01:02.120Z,7.806091
2019-03-27T08:02:02.269Z,7.906799
2019-03-27T08:03:02.219Z,8.007507
2019-03-27T08:04:02.304Z,8.027649
2019-03-27T08:05:02.321Z,8.078003
2019-03-27T08:06:02.407Z,8.017578
2019-03-27T08:07:02.495Z,7.977295
2019-03-27T08:08:03.602Z,7.957153
2019-03-27T08:09:02.644Z,7.977295
2019-03-27T08:10:02.709Z,7.775879
2019-03-27T08:11:02.744Z,7.836304
2019-03-27T08:12:02.814Z,7.926941
2019-03-27T08:13:02.858Z,8.047791
2019-03-27T08:14:02.911Z,8.178711
2019-03-27T08:15:02.950Z,8.319702
2019-03-27T08:16:02.994Z,8.450623
2019-03-27T08:17:03.138Z,8.490906
2019-03-27T08:18:03.125Z,8.521118
2019-03-27T08:19:07.611Z,8.571472
2019-03-27T08:20:03.191Z,8.662109
2019-03-27T08:21:03.229Z,8.641968
2019-03-27T08:22:03.321Z,8.772888
2019-03-27T08:23:03.369Z,8.782959
2019-03-27T08:24:03.389Z,8.79303
2019-03-27T08:25:03.443Z,8.772888
2019-03-27T08:26:03.507Z,8.662109
2019-03-27T08:27:03.606Z,8.54126
2019-03-27T08:28:03.635Z,8.450623
2019-03-27T08:29:03.685Z,8.450623
2019-03-27T08:30:03.728Z,8.490906
2019-03-27T08:31:03.769Z,9.417419
2019-03-27T08:32:03.825Z,10.817261
2019-03-27T08:33:03.881Z,11.18988
2019-03-27T08:34:03.925Z,11.68335
2019-03-27T08:35:03.974Z,11.733704
2019-03-27T08:36:04.017Z,11.512146
2019-03-27T08:37:04.073Z,11.17981
2019-03-27T08:38:04.120Z,10.756836
2019-03-27T08:39:04.166Z,10.233154
2019-03-27T08:40:04.207Z,9.699402
2019-03-27T08:41:04.252Z,9.54834
2019-03-27T08:42:04.315Z,9.54834
2019-03-27T08:43:04.378Z,9.518127
2019-03-27T08:44:05.404Z,9.447632
2019-03-27T08:45:04.434Z,9.699402
2019-03-27T08:46:04.508Z,10.001526
2019-03-27T08:47:04.578Z,10.343933
2019-03-27T08:48:04.645Z,10.756836
2019-03-27T08:49:04.690Z,11.18988
2019-03-27T08:50:05.691Z,11.17981
2019-03-27T08:51:04.735Z,10.887756
2019-03-27T08:52:04.809Z,10.706482
2019-03-27T08:53:04.871Z,10.666199
2019-03-27T08:54:04.928Z,10.454712
2019-03-27T08:55:04.965Z,10.615845
2019-03-27T08:56:05.032Z,10.575562
2019-03-27T08:57:05.154Z,10.213013
2019-03-27T08:58:05.213Z,10.001526
2019-03-27T08:59:05.248Z,10.414429
2019-03-27T09:00:05.300Z,10.716553
2019-03-27T09:01:06.346Z,11.018677
2019-03-27T09:02:05.402Z,11.099243
2019-03-27T09:03:05.453Z,10.978394
2019-03-27T09:04:05.552Z,10.867615
2019-03-27T09:05:05.633Z,10.897827
2019-03-27T09:06:05.715Z,10.817261
2019-03-27T09:07:05.790Z,10.968323
2019-03-27T09:08:05.882Z,11.371155
2019-03-27T09:09:05.990Z,11.673279
2019-03-27T09:10:06.072Z,11.995544
2019-03-27T09:11:06.125Z,12.730713
2019-03-27T09:12:06.209Z,13.274536
2019-03-27T09:13:06.278Z,13.19397
2019-03-27T09:14:06.328Z,12.871704
2019-03-27T09:15:07.368Z,12.680359
2019-03-27T09:16:06.397Z,12.861633
2019-03-27T09:17:06.464Z,12.871704
2019-03-27T09:18:06.554Z,12.277527
2019-03-27T09:19:06.538Z,11.743774
2019-03-27T09:20:06.596Z,11.149597
2019-03-27T09:21:06.639Z,10.837402
2019-03-27T09:22:06.714Z,11.17981
2019-03-27T09:23:06.755Z,11.632996
2019-03-27T09:24:06.795Z,12.076111
2019-03-27T09:25:06.834Z,12.69043
2019-03-27T09:26:06.920Z,13.163757
2019-03-27T09:27:07.045Z,13.747864
2019-03-27T09:28:07.092Z,13.516235
2019-03-27T09:29:08.453Z,13.214111
2019-03-27T09:30:07.161Z,12.760925
2019-03-27T09:31:07.220Z,12.760925
2019-03-27T09:32:07.290Z,12.630005
2019-03-27T09:33:07.360Z,12.096252
2019-03-27T09:34:07.447Z,11.925049
2019-03-27T09:35:07.480Z,11.804199
2019-03-27T09:36:07.614Z,11.532288
2019-03-27T09:37:07.608Z,11.834412
2019-03-27T09:38:07.661Z,12.096252
2019-03-27T09:39:07.711Z,12.19696
2019-03-27T09:40:07.760Z,12.650146
2019-03-27T09:41:07.813Z,13.093262
2019-03-27T09:42:08.885Z,13.395386
2019-03-27T09:43:07.903Z,13.425598
2019-03-27T09:44:07.960Z,13.57666
2019-03-27T09:45:07.995Z,13.798218
2019-03-27T09:46:08.042Z,13.707581
2019-03-27T09:47:08.100Z,13.415527
2019-03-27T09:48:08.164Z,13.022766
2019-03-27T09:49:08.240Z,12.69043
2019-03-27T09:50:08.283Z,12.287598
2019-03-27T09:51:08.375Z,12.207031
2019-03-27T09:52:08.417Z,12.358093
2019-03-27T09:53:08.503Z,12.297668
2019-03-27T09:54:08.550Z,12.348022
2019-03-27T09:55:08.623Z,12.609863
2019-03-27T09:56:18.734Z,12.368164
2019-03-27T09:57:08.796Z,12.428589
2019-03-27T09:58:08.854Z,12.31781
2019-03-27T09:59:08.937Z,12.811279
2019-03-27T10:00:09.011Z,12.871704
2019-03-27T10:01:09.066Z,12.31781
2019-03-27T10:02:09.151Z,12.096252
2019-03-27T10:03:09.208Z,12.227173
2019-03-27T10:04:09.255Z,12.327881
2019-03-27T10:05:09.316Z,12.730713
2019-03-27T10:06:09.335Z,13.465881
2019-03-27T10:07:09.406Z,14.039917
2019-03-27T10:08:09.447Z,14.0802
2019-03-27T10:09:09.497Z,13.979492
2019-03-27T10:10:09.549Z,13.888855
2019-03-27T10:11:09.601Z,13.415527
2019-03-27T10:12:10.653Z,13.113403
2019-03-27T10:13:09.686Z,12.932129
2019-03-27T10:14:09.751Z,12.801208
2019-03-27T10:15:09.901Z,12.831421
2019-03-27T10:16:09.933Z,13.365173
2019-03-27T10:17:10.001Z,13.747864
2019-03-27T10:18:10.011Z,13.868713
2019-03-27T10:19:10.168Z,13.536377
2019-03-27T10:20:13.415Z,12.760925
2019-03-27T10:21:10.259Z,12.499084
2019-03-27T10:22:10.292Z,12.166748
2019-03-27T10:23:10.329Z,11.763916
2019-03-27T10:24:10.402Z,11.784058
2019-03-27T10:25:10.411Z,12.468872
2019-03-27T10:26:10.486Z,12.992554
2019-03-27T10:27:10.561Z,13.596802
2019-03-27T10:28:10.692Z,13.848572
2019-03-27T10:29:10.721Z,13.82843
2019-03-27T10:30:10.761Z,13.999634
2019-03-27T10:31:10.788Z,13.908997
2019-03-27T10:32:10.957Z,13.667297
2019-03-27T10:33:11.006Z,13.546448
2019-03-27T10:34:11.077Z,13.284607
2019-03-27T10:35:11.111Z,12.982483
2019-03-27T10:36:11.214Z,12.69043
2019-03-27T10:37:11.279Z,12.327881
2019-03-27T10:38:11.322Z,12.015686
2019-03-27T10:39:11.371Z,11.5625
2019-03-27T10:40:11.446Z,11.371155
2019-03-27T10:41:11.556Z,11.048889
2019-03-27T10:42:11.671Z,10.948181
2019-03-27T10:43:11.693Z,10.968323
2019-03-27T10:44:11.689Z,11.532288
2019-03-27T10:45:11.683Z,12.398376
2019-03-27T10:46:11.814Z,13.244324
2019-03-27T10:47:11.940Z,13.929138
2019-03-27T10:48:11.992Z,14.342041
2019-03-27T10:49:12.045Z,14.20105
2019-03-27T10:50:17.747Z,14.0802
2019-03-27T10:51:12.286Z,13.798218
2019-03-27T10:52:12.302Z,13.516235
2019-03-27T10:53:12.318Z,13.355103
2019-03-27T10:54:12.364Z,12.881775
2019-03-27T10:55:12.416Z,12.69043
2019-03-27T10:56:12.463Z,12.388306
2019-03-27T10:57:12.529Z,12.06604
2019-03-27T10:58:12.574Z,12.015686
2019-03-27T10:59:12.668Z,11.854553
2019-03-27T11:00:12.791Z,11.733704
2019-03-27T11:01:12.855Z,11.622925
2019-03-27T11:02:12.901Z,11.5625
2019-03-27T11:03:12.953Z,11.44165
2019-03-27T11:04:12.996Z,11.552429
2019-03-27T11:05:13.027Z,11.733704
2019-03-27T11:06:13.050Z,12.025757
2019-03-27T11:07:13.253Z,12.297668
2019-03-27T11:08:13.297Z,12.44873
2019-03-27T11:09:13.324Z,12.630005
2019-03-27T11:10:13.404Z,12.982483
2019-03-27T11:11:13.440Z,13.365173
2019-03-27T11:12:13.483Z,13.566589
2019-03-27T11:13:13.542Z,13.44574
2019-03-27T11:14:13.609Z,13.415527
2019-03-27T11:15:14.685Z,13.123474
2019-03-27T11:16:13.718Z,12.982483
2019-03-27T11:17:13.816Z,12.841492
2019-03-27T11:18:13.832Z,12.549438
2019-03-27T11:19:13.885Z,12.106323
2019-03-27T11:20:13.939Z,12.106323
2019-03-27T11:21:14.950Z,12.388306
2019-03-27T11:22:14.017Z,12.549438
2019-03-27T11:23:14.132Z,12.811279
2019-03-27T11:24:14.165Z,12.730713
2019-03-27T11:25:14.258Z,12.881775
2019-03-27T11:26:14.305Z,13.133545
2019-03-27T11:27:14.385Z,12.952271
2019-03-27T11:28:14.506Z,12.720642
2019-03-27T11:29:14.549Z,13.012695
2019-03-27T11:30:14.597Z,13.314819
2019-03-27T11:31:14.649Z,13.606873
2019-03-27T11:32:14.693Z,13.969421
2019-03-27T11:33:14.808Z,14.150696
2019-03-27T11:34:15.915Z,14.402466
2019-03-27T11:35:14.890Z,14.513245
2019-03-27T11:36:14.965Z,14.221191
2019-03-27T11:37:15.022Z,14.0802
2019-03-27T11:38:15.122Z,14.483032
2019-03-27T11:39:15.216Z,14.342041
2019-03-27T11:40:15.291Z,14.734802
2019-03-27T11:41:15.358Z,15.077209
2019-03-27T11:42:15.478Z,15.328979